Time;durP1;ratioP1;P1;durP2;ratioP2;P2;SDS_P1;SDS_P2;PMS_P1;PMS_P2;Temp;Humidity;BMP_temperature;BMP_pressure;BME280_temperature;BME280_humidity;BME280_pressure;Samples;Min_cycle;Max_cycle;Signal;HPM_P1;HPM_P2
2021/08/22 00:00:11;;;;;;;7.78;7.03;;;;;;;;;;5053664;28;20108;-80
2021/08/22 00:02:37;;;;;;;8.93;7.75;;;;;;;;;;5044457;28;20031;-80
2021/08/22 00:05:03;;;;;;;8.60;7.03;;;;;;;;;;5033694;28;20103;-81
2021/08/22 00:07:28;;;;;;;9.65;7.25;;;;;;;;;;5040283;28;20107;-81
2021/08/22 00:09:54;;;;;;;10.95;6.47;;;;;;;;;;5053931;28;20037;-82
2021/08/22 00:12:19;;;;;;;8.70;7.60;;;;;;;;;;5054060;28;20067;-81
2021/08/22 00:14:44;;;;;;;13.10;8.13;;;;;;;;;;5053962;28;20700;-82
2021/08/22 00:17:09;;;;;;;12.13;8.63;;;;;;;;;;5053369;28;20271;-82
2021/08/22 00:19:37;;;;;;;9.33;7.53;;;;;;;;;;5053651;28;20259;-82
2021/08/22 00:22:02;;;;;;;8.48;7.30;;;;;;;;;;5051575;28;20294;-82
2021/08/22 00:24:27;;;;;;;11.18;8.65;;;;;;;;;;5053655;28;20099;-82
2021/08/22 00:26:55;;;;;;;11.82;8.57;;;;;;;;;;5053537;28;20361;-82
2021/08/22 00:29:20;;;;;;;8.40;7.60;;;;;;;;;;5050075;28;20049;-83
2021/08/22 00:31:45;;;;;;;8.60;7.73;;;;;;;;;;5036537;28;20471;-83
2021/08/22 00:34:12;;;;;;;10.47;7.60;;;;;;;;;;5033588;28;20283;-84
2021/08/22 00:36:38;;;;;;;10.45;9.35;;;;;;;;;;5046180;28;20275;-84
2021/08/22 00:39:03;;;;;;;9.87;8.80;;;;;;;;;;5053552;28;20017;-84
2021/08/22 00:41:29;;;;;;;9.20;8.13;;;;;;;;;;5052970;28;20279;-83
2021/08/22 00:43:59;;;;;;;9.40;8.05;;;;;;;;;;5053621;28;20033;-83
2021/08/22 00:46:25;;;;;;;8.98;7.68;;;;;;;;;;5052407;28;20059;-83
2021/08/22 00:48:50;;;;;;;9.30;8.20;;;;;;;;;;5053341;28;20044;-83
2021/08/22 00:51:18;;;;;;;11.57;9.45;;;;;;;;;;5052965;28;20052;-84
2021/08/22 00:53:47;;;;;;;22.77;8.55;;;;;;;;;;5053544;28;20346;-84
2021/08/22 00:56:12;;;;;;;9.05;8.20;;;;;;;;;;5053373;28;20032;-84
2021/08/22 00:58:38;;;;;;;11.68;9.50;;;;;;;;;;5035598;28;20101;-83
2021/08/22 01:01:06;;;;;;;8.60;7.80;;;;;;;;;;5040132;28;20025;-83
2021/08/22 01:03:34;;;;;;;10.15;8.85;;;;;;;;;;5053437;28;20325;-83
2021/08/22 01:06:26;;;;;;;11.48;8.38;;;;;;;;;;5047132;28;20021;-84
2021/08/22 01:08:55;;;;;;;11.80;7.55;;;;;;;;;;5037338;28;20449;-85
2021/08/22 01:11:21;;;;;;;9.65;7.30;;;;;;;;;;5040401;28;20036;-85
2021/08/22 01:13:55;;;;;;;11.25;9.32;;;;;;;;;;5052084;28;20013;-85
2021/08/22 01:16:21;;;;;;;9.38;8.05;;;;;;;;;;5052407;28;20017;-84
2021/08/22 01:18:47;;;;;;;12.63;9.13;;;;;;;;;;5052238;28;20032;-84
2021/08/22 01:21:17;;;;;;;10.60;9.50;;;;;;;;;;5053033;28;20052;-83
2021/08/22 01:24:02;;;;;;;10.43;9.27;;;;;;;;;;5053249;28;20025;-84
2021/08/22 01:26:37;;;;;;;12.27;10.38;;;;;;;;;;5052070;28;20053;-84
2021/08/22 01:29:03;;;;;;;9.95;7.80;;;;;;;;;;5052761;28;20445;-84
2021/08/22 01:31:35;;;;;;;12.65;8.63;;;;;;;;;;5052468;28;20056;-83
2021/08/22 01:34:00;;;;;;;12.60;9.15;;;;;;;;;;5052638;28;20048;-80
2021/08/22 01:36:26;;;;;;;10.45;8.77;;;;;;;;;;5033070;28;20114;-80
2021/08/22 01:38:54;;;;;;;10.13;8.35;;;;;;;;;;5041814;28;20024;-80
2021/08/22 01:41:22;;;;;;;10.02;8.75;;;;;;;;;;5054955;28;20017;-80
2021/08/22 01:43:50;;;;;;;10.23;9.25;;;;;;;;;;5056133;28;20029;-82
2021/08/22 01:46:15;;;;;;;10.25;7.93;;;;;;;;;;5056366;28;20025;-83
2021/08/22 01:48:41;;;;;;;11.07;7.82;;;;;;;;;;5056628;28;20048;-82
2021/08/22 01:51:06;;;;;;;9.98;7.18;;;;;;;;;;5043411;28;20057;-83
2021/08/22 01:53:33;;;;;;;9.93;7.28;;;;;;;;;;5036315;28;20036;-83
2021/08/22 01:55:58;;;;;;;7.90;6.22;;;;;;;;;;5036021;28;20030;-82
2021/08/22 01:58:25;;;;;;;7.80;7.00;;;;;;;;;;5036366;28;20029;-83
2021/08/22 02:00:51;;;;;;;9.40;6.03;;;;;;;;;;5035859;28;20040;-83
2021/08/22 02:03:22;;;;;;;8.57;5.38;;;;;;;;;;5036257;28;20029;-83
2021/08/22 02:05:50;;;;;;;7.22;5.70;;;;;;;;;;5035802;28;20421;-83
2021/08/22 02:08:19;;;;;;;8.15;5.22;;;;;;;;;;5040834;28;20063;-83
2021/08/22 02:10:48;;;;;;;6.82;5.95;;;;;;;;;;5055164;28;20067;-83
2021/08/22 02:13:14;;;;;;;7.28;5.25;;;;;;;;;;5053740;28;20017;-82
2021/08/22 02:15:43;;;;;;;7.63;6.05;;;;;;;;;;5035935;28;20096;-81
2021/08/22 02:18:12;;;;;;;8.43;5.60;;;;;;;;;;5035926;28;20022;-83
2021/08/22 02:20:38;;;;;;;7.00;5.63;;;;;;;;;;5055293;28;20021;-82
2021/08/22 02:23:03;;;;;;;9.95;5.95;;;;;;;;;;5054773;28;20017;-82
2021/08/22 02:25:31;;;;;;;8.25;6.45;;;;;;;;;;5055509;28;20047;-84
2021/08/22 02:27:58;;;;;;;6.97;5.90;;;;;;;;;;5055801;28;20025;-84
2021/08/22 02:30:23;;;;;;;8.27;5.90;;;;;;;;;;5055645;28;20045;-84
2021/08/22 02:32:48;;;;;;;6.38;5.78;;;;;;;;;;5055387;28;20036;-83
2021/08/22 02:35:14;;;;;;;13.50;6.68;;;;;;;;;;5055205;28;20021;-82
2021/08/22 02:37:39;;;;;;;8.93;6.10;;;;;;;;;;5054934;28;20063;-82
2021/08/22 02:40:05;;;;;;;7.00;6.30;;;;;;;;;;5054447;28;20325;-82
2021/08/22 02:42:30;;;;;;;7.45;6.82;;;;;;;;;;5055173;28;20437;-83
2021/08/22 02:44:55;;;;;;;8.02;6.55;;;;;;;;;;5042746;28;20034;-83
2021/08/22 02:47:20;;;;;;;9.87;6.73;;;;;;;;;;5035289;28;20029;-83
2021/08/22 02:49:46;;;;;;;9.57;5.90;;;;;;;;;;5034749;28;20304;-83
2021/08/22 02:52:11;;;;;;;7.75;5.85;;;;;;;;;;5035084;28;20326;-83
2021/08/22 02:54:39;;;;;;;9.18;6.68;;;;;;;;;;5035514;28;20033;-83
2021/08/22 02:57:04;;;;;;;7.05;6.35;;;;;;;;;;5035499;28;20018;-82
2021/08/22 02:59:32;;;;;;;8.57;7.22;;;;;;;;;;5050643;28;20112;-81
2021/08/22 03:01:57;;;;;;;10.90;7.72;;;;;;;;;;5054893;28;20021;-81
2021/08/22 03:04:22;;;;;;;8.47;7.03;;;;;;;;;;5053896;28;20017;-82
2021/08/22 03:06:47;;;;;;;8.90;7.57;;;;;;;;;;5054830;28;20247;-81
2021/08/22 03:09:13;;;;;;;7.53;6.80;;;;;;;;;;5041037;28;20267;-81
2021/08/22 03:11:38;;;;;;;10.30;7.32;;;;;;;;;;5034888;28;20112;-82
2021/08/22 03:14:03;;;;;;;7.95;7.15;;;;;;;;;;5035323;28;20025;-82
2021/08/22 03:16:29;;;;;;;9.20;7.90;;;;;;;;;;5034570;28;20021;-82
2021/08/22 03:18:56;;;;;;;9.13;6.53;;;;;;;;;;5034669;28;20032;-81
2021/08/22 03:21:21;;;;;;;10.18;7.85;;;;;;;;;;5034227;28;20025;-81
2021/08/22 03:23:47;;;;;;;10.50;7.53;;;;;;;;;;5034354;28;20079;-81
2021/08/22 03:26:14;;;;;;;8.45;6.70;;;;;;;;;;5034361;28;20256;-81
2021/08/22 03:28:39;;;;;;;8.65;6.70;;;;;;;;;;5049619;28;20420;-82
2021/08/22 03:31:07;;;;;;;8.70;6.53;;;;;;;;;;5054115;28;20061;-81
2021/08/22 03:33:32;;;;;;;8.45;6.60;;;;;;;;;;5053355;28;20279;-82
2021/08/22 03:35:57;;;;;;;9.75;8.75;;;;;;;;;;5054201;28;20396;-82
2021/08/22 03:38:22;;;;;;;9.63;7.13;;;;;;;;;;5065454;28;20044;-84
2021/08/22 03:40:51;;;;;;;8.20;6.27;;;;;;;;;;5073994;28;20462;-85
2021/08/22 03:43:16;;;;;;;8.25;6.50;;;;;;;;;;5052806;28;20302;-84
2021/08/22 03:45:43;;;;;;;10.33;5.80;;;;;;;;;;5033735;28;20556;-84
2021/08/22 03:48:09;;;;;;;5.20;4.72;;;;;;;;;;5041650;28;20605;-82
2021/08/22 03:50:34;;;;;;;7.70;6.17;;;;;;;;;;5052356;28;20020;-83
2021/08/22 03:52:59;;;;;;;7.72;6.20;;;;;;;;;;5046225;28;20291;-83
2021/08/22 03:55:24;;;;;;;7.20;6.23;;;;;;;;;;5032714;28;20072;-83
2021/08/22 03:57:49;;;;;;;8.75;6.63;;;;;;;;;;5048799;28;20295;-83
2021/08/22 04:00:17;;;;;;;11.30;5.93;;;;;;;;;;5033581;28;20017;-83
2021/08/22 04:02:45;;;;;;;6.25;5.65;;;;;;;;;;5033025;28;20394;-82
2021/08/22 04:05:12;;;;;;;6.72;5.80;;;;;;;;;;5033750;28;20382;-83
2021/08/22 04:07:39;;;;;;;9.18;6.57;;;;;;;;;;5044546;28;20441;-83
2021/08/22 04:10:05;;;;;;;6.85;6.20;;;;;;;;;;5038325;28;20049;-83
2021/08/22 04:12:33;;;;;;;9.73;6.43;;;;;;;;;;5033754;28;20032;-83
2021/08/22 04:14:58;;;;;;;7.85;6.28;;;;;;;;;;5033744;28;20101;-83
2021/08/22 04:17:23;;;;;;;8.40;6.97;;;;;;;;;;5034430;28;20108;-83
2021/08/22 04:19:48;;;;;;;6.90;6.30;;;;;;;;;;5053306;28;20033;-83
2021/08/22 04:22:14;;;;;;;7.43;6.33;;;;;;;;;;5053228;28;20333;-83
2021/08/22 04:24:39;;;;;;;6.75;6.03;;;;;;;;;;5052501;28;20309;-83
2021/08/22 04:27:04;;;;;;;11.65;6.80;;;;;;;;;;5047619;28;20418;-84
2021/08/22 04:29:30;;;;;;;7.95;6.78;;;;;;;;;;5052933;28;20147;-84
2021/08/22 04:31:56;;;;;;;7.20;6.50;;;;;;;;;;5047221;28;20101;-84
2021/08/22 04:34:23;;;;;;;14.07;6.87;;;;;;;;;;5052462;28;20032;-83
2021/08/22 04:36:49;;;;;;;12.43;7.53;;;;;;;;;;5052848;28;20709;-85
2021/08/22 04:39:14;;;;;;;7.55;6.15;;;;;;;;;;5045823;28;20171;-83
2021/08/22 04:41:42;;;;;;;9.02;6.82;;;;;;;;;;5032905;28;20446;-74
2021/08/22 04:44:09;;;;;;;6.07;5.47;;;;;;;;;;5038116;28;20565;-75
2021/08/22 04:46:35;;;;;;;7.03;6.43;;;;;;;;;;5052861;28;20053;-75
2021/08/22 04:49:00;;;;;;;8.95;6.53;;;;;;;;;;5048362;28;20135;-74
2021/08/22 04:51:25;;;;;;;11.10;6.77;;;;;;;;;;5053242;28;20032;-74
2021/08/22 04:53:50;;;;;;;7.85;7.05;;;;;;;;;;5052173;28;20266;-76
2021/08/22 04:56:15;;;;;;;6.63;6.00;;;;;;;;;;5052056;28;20024;-75
2021/08/22 04:58:41;;;;;;;7.63;6.73;;;;;;;;;;5052838;28;20277;-74
2021/08/22 05:01:08;;;;;;;7.63;6.88;;;;;;;;;;5045079;28;20280;-74
2021/08/22 05:03:33;;;;;;;13.90;7.18;;;;;;;;;;5037252;28;20440;-75
2021/08/22 05:05:59;;;;;;;10.00;6.90;;;;;;;;;;5052244;28;20103;-75
2021/08/22 05:08:24;;;;;;;7.65;5.55;;;;;;;;;;5050202;28;20283;-73
2021/08/22 05:10:50;;;;;;;9.50;6.20;;;;;;;;;;5047246;28;20017;-74
2021/08/22 05:13:16;;;;;;;8.80;6.88;;;;;;;;;;5048770;28;20033;-74
2021/08/22 05:15:43;;;;;;;6.70;5.90;;;;;;;;;;5050638;28;20041;-74
2021/08/22 05:18:10;;;;;;;7.20;6.50;;;;;;;;;;5053043;28;20021;-75
2021/08/22 05:20:36;;;;;;;10.13;6.82;;;;;;;;;;5051410;28;20100;-73
2021/08/22 05:23:01;;;;;;;8.90;8.00;;;;;;;;;;5046125;28;20108;-76
2021/08/22 05:25:26;;;;;;;8.87;7.97;;;;;;;;;;5055523;28;20398;-77
2021/08/22 05:27:53;;;;;;;9.98;7.47;;;;;;;;;;5050022;28;20251;-76
2021/08/22 05:30:19;;;;;;;7.60;6.72;;;;;;;;;;5049303;28;20037;-77
2021/08/22 05:32:44;;;;;;;8.57;7.57;;;;;;;;;;5046396;28;20032;-74
2021/08/22 05:35:09;;;;;;;12.88;7.07;;;;;;;;;;5036361;28;20013;-74
2021/08/22 05:37:35;;;;;;;8.25;6.75;;;;;;;;;;5050279;28;20037;-74
2021/08/22 05:40:00;;;;;;;9.32;7.00;;;;;;;;;;5055666;28;20040;-74
2021/08/22 05:42:25;;;;;;;13.13;7.27;;;;;;;;;;5055216;28;20090;-74
2021/08/22 05:44:50;;;;;;;9.00;6.93;;;;;;;;;;5055197;28;20268;-74
2021/08/22 05:47:24;;;;;;;7.00;6.10;;;;;;;;;;5053344;28;20268;-75
2021/08/22 05:49:51;;;;;;;8.77;5.95;;;;;;;;;;5055978;28;20031;-74
2021/08/22 05:52:16;;;;;;;7.45;6.20;;;;;;;;;;5052204;28;20025;-74
2021/08/22 05:54:44;;;;;;;9.50;6.30;;;;;;;;;;5055683;28;20028;-74
2021/08/22 05:57:09;;;;;;;6.38;5.88;;;;;;;;;;5051413;28;20025;-74
2021/08/22 05:59:34;;;;;;;6.53;5.90;;;;;;;;;;5035800;28;20021;-74
2021/08/22 06:02:00;;;;;;;7.45;5.93;;;;;;;;;;5035556;28;20021;-74
2021/08/22 06:04:25;;;;;;;12.00;6.43;;;;;;;;;;5035829;28;20017;-74
2021/08/22 06:06:51;;;;;;;7.88;5.85;;;;;;;;;;5035975;28;20023;-74
2021/08/22 06:09:18;;;;;;;5.78;5.28;;;;;;;;;;5048401;28;20346;-72
2021/08/22 06:11:44;;;;;;;7.15;6.45;;;;;;;;;;5055588;28;20489;-72
2021/08/22 06:14:11;;;;;;;7.28;5.30;;;;;;;;;;5054686;28;20108;-72
2021/08/22 06:16:36;;;;;;;8.70;5.43;;;;;;;;;;5055658;28;20078;-73
2021/08/22 06:19:02;;;;;;;7.32;5.22;;;;;;;;;;5053142;28;20029;-72
2021/08/22 06:21:27;;;;;;;6.10;5.20;;;;;;;;;;5052833;28;20025;-73
2021/08/22 06:23:53;;;;;;;8.02;5.55;;;;;;;;;;5055304;28;20412;-74
2021/08/22 06:26:19;;;;;;;6.25;5.75;;;;;;;;;;5044105;28;20052;-73
2021/08/22 06:28:44;;;;;;;6.95;5.50;;;;;;;;;;5048270;28;20021;-74
2021/08/22 06:31:12;;;;;;;6.40;5.50;;;;;;;;;;5054731;28;20056;-73
2021/08/22 06:33:37;;;;;;;5.95;5.43;;;;;;;;;;5055400;28;20284;-73
2021/08/22 06:36:02;;;;;;;7.40;5.20;;;;;;;;;;5047779;28;20056;-73
2021/08/22 06:38:28;;;;;;;7.03;5.97;;;;;;;;;;5044979;28;20351;-73
2021/08/22 06:40:53;;;;;;;5.57;4.82;;;;;;;;;;5049991;28;20029;-73
2021/08/22 06:43:18;;;;;;;7.35;5.90;;;;;;;;;;5055030;28;20454;-73
2021/08/22 06:45:43;;;;;;;6.67;5.10;;;;;;;;;;5049235;28;20357;-73
2021/08/22 06:48:11;;;;;;;8.15;5.45;;;;;;;;;;5054601;28;20278;-74
2021/08/22 06:50:36;;;;;;;9.23;5.40;;;;;;;;;;5054629;28;20017;-74
2021/08/22 06:53:01;;;;;;;5.93;5.32;;;;;;;;;;5053767;28;20013;-74
2021/08/22 06:55:26;;;;;;;5.70;5.00;;;;;;;;;;5053582;28;20017;-74
2021/08/22 06:57:54;;;;;;;5.07;4.67;;;;;;;;;;5054640;28;20254;-74
2021/08/22 07:00:19;;;;;;;6.22;5.63;;;;;;;;;;5053534;28;20275;-74
2021/08/22 07:02:44;;;;;;;6.80;6.10;;;;;;;;;;5054686;28;20331;-74
2021/08/22 07:05:11;;;;;;;7.93;5.30;;;;;;;;;;5054010;28;20013;-74
2021/08/22 07:07:36;;;;;;;6.63;5.25;;;;;;;;;;5051302;28;20028;-74
2021/08/22 07:10:01;;;;;;;5.53;5.03;;;;;;;;;;5049660;28;20357;-74
2021/08/22 07:12:26;;;;;;;6.43;5.72;;;;;;;;;;5054128;28;20603;-74
2021/08/22 07:14:54;;;;;;;7.28;6.38;;;;;;;;;;5042474;28;20029;-74
2021/08/22 07:17:20;;;;;;;10.20;5.63;;;;;;;;;;5039138;28;20481;-73
2021/08/22 07:19:45;;;;;;;5.75;4.63;;;;;;;;;;5051241;28;20483;-72
2021/08/22 07:22:10;;;;;;;5.63;5.00;;;;;;;;;;5053421;28;20025;-72
2021/08/22 07:24:36;;;;;;;6.83;5.37;;;;;;;;;;5046791;28;20041;-72
2021/08/22 07:27:01;;;;;;;7.17;4.70;;;;;;;;;;5049553;28;20300;-72
2021/08/22 07:29:26;;;;;;;6.30;5.72;;;;;;;;;;5052212;28;20314;-72
2021/08/22 07:31:51;;;;;;;8.13;5.30;;;;;;;;;;5051397;28;20389;-71
2021/08/22 07:34:16;;;;;;;8.53;5.63;;;;;;;;;;5045849;28;20021;-71
2021/08/22 07:36:42;;;;;;;6.15;5.55;;;;;;;;;;5052287;28;20313;-72
2021/08/22 07:39:07;;;;;;;5.70;5.18;;;;;;;;;;5048383;28;20040;-72
2021/08/22 07:41:32;;;;;;;5.15;4.65;;;;;;;;;;5048298;28;20013;-72
2021/08/22 07:43:57;;;;;;;19.33;4.73;;;;;;;;;;5044387;28;20028;-72
2021/08/22 07:46:25;;;;;;;7.80;5.23;;;;;;;;;;5043522;28;20273;-71
2021/08/22 07:48:52;;;;;;;7.15;4.72;;;;;;;;;;5051337;28;20279;-71
2021/08/22 07:51:18;;;;;;;8.35;5.00;;;;;;;;;;5041771;28;20025;-71
2021/08/22 07:53:43;;;;;;;5.13;4.47;;;;;;;;;;5047786;28;20354;-71
2021/08/22 07:56:08;;;;;;;8.60;5.15;;;;;;;;;;5045515;28;20029;-71
2021/08/22 07:58:33;;;;;;;6.13;5.53;;;;;;;;;;5049386;28;20017;-72
2021/08/22 08:00:59;;;;;;;5.40;4.90;;;;;;;;;;5043232;28;20271;-71
2021/08/22 08:03:26;;;;;;;6.93;5.20;;;;;;;;;;5044985;28;20329;-72
2021/08/22 08:05:54;;;;;;;6.50;5.35;;;;;;;;;;5043912;28;20060;-71
2021/08/22 08:08:22;;;;;;;5.82;5.22;;;;;;;;;;5049461;28;20433;-71
2021/08/22 08:10:47;;;;;;;7.90;5.80;;;;;;;;;;5051028;28;20066;-71
2021/08/22 08:13:12;;;;;;;11.63;5.95;;;;;;;;;;5050104;28;20021;-71
2021/08/22 08:15:41;;;;;;;9.77;5.30;;;;;;;;;;5046234;28;20075;-71
2021/08/22 08:18:06;;;;;;;7.78;5.78;;;;;;;;;;5040692;28;20247;-71
2021/08/22 08:20:31;;;;;;;7.18;6.00;;;;;;;;;;5039981;28;20127;-71
2021/08/22 08:22:56;;;;;;;5.83;5.30;;;;;;;;;;5048019;28;20458;-73
2021/08/22 08:25:24;;;;;;;8.10;5.80;;;;;;;;;;5049734;28;20589;-71
2021/08/22 08:27:49;;;;;;;5.75;5.20;;;;;;;;;;5050239;28;20342;-71
2021/08/22 08:30:15;;;;;;;5.88;4.93;;;;;;;;;;5047929;28;20162;-69
2021/08/22 08:32:40;;;;;;;8.82;5.45;;;;;;;;;;5042842;28;20025;-70
2021/08/22 08:35:06;;;;;;;8.03;5.60;;;;;;;;;;5050802;28;20059;-71
2021/08/22 08:37:31;;;;;;;7.90;6.00;;;;;;;;;;5049394;28;20362;-70
2021/08/22 08:39:57;;;;;;;6.00;5.27;;;;;;;;;;5054367;28;20485;-70
2021/08/22 08:42:32;;;;;;;5.90;5.40;;;;;;;;;;5037611;28;20374;-70
2021/08/22 08:44:57;;;;;;;9.27;5.40;;;;;;;;;;5044064;28;20013;-69
2021/08/22 08:47:23;;;;;;;8.93;5.97;;;;;;;;;;5043965;28;20252;-70
2021/08/22 08:50:04;;;;;;;10.93;5.60;;;;;;;;;;5049599;28;20053;-69
2021/08/22 08:52:38;;;;;;;11.38;7.05;;;;;;;;;;5055720;28;20342;-69
2021/08/22 08:55:30;;;;;;;12.13;5.70;;;;;;;;;;5049355;28;20102;-70
2021/08/22 08:57:57;;;;;;;8.20;5.28;;;;;;;;;;5053399;28;20124;-70
2021/08/22 09:00:25;;;;;;;7.35;5.43;;;;;;;;;;5046938;28;20032;-70
2021/08/22 09:02:50;;;;;;;5.38;4.88;;;;;;;;;;5045490;28;20035;-69
2021/08/22 09:05:25;;;;;;;4.97;3.85;;;;;;;;;;5038360;28;20014;-70
2021/08/22 09:07:53;;;;;;;4.43;3.90;;;;;;;;;;5045584;28;20104;-69
2021/08/22 09:10:18;;;;;;;5.13;3.88;;;;;;;;;;5048677;28;20021;-69
2021/08/22 09:13:02;;;;;;;5.70;4.10;;;;;;;;;;5043810;28;20369;-70
2021/08/22 09:15:27;;;;;;;11.40;3.35;;;;;;;;;;5050550;28;20100;-70
2021/08/22 09:18:13;;;;;;;5.63;4.07;;;;;;;;;;5046441;28;20104;-71
2021/08/22 09:21:13;;;;;;;6.97;3.83;;;;;;;;;;5043325;28;20025;-69
2021/08/22 09:23:59;;;;;;;4.72;4.20;;;;;;;;;;5022861;28;20030;-69
2021/08/22 09:26:40;;;;;;;6.78;4.32;;;;;;;;;;5046452;28;20025;-70
2021/08/22 09:29:24;;;;;;;5.32;3.70;;;;;;;;;;5049755;28;20139;-70
2021/08/22 09:31:49;;;;;;;6.32;3.97;;;;;;;;;;5051600;28;20045;-69
2021/08/22 09:34:33;;;;;;;4.17;3.80;;;;;;;;;;5048736;28;20039;-70
2021/08/22 09:37:09;;;;;;;6.13;3.85;;;;;;;;;;5051418;28;20031;-70
2021/08/22 09:39:53;;;;;;;4.45;4.05;;;;;;;;;;5055855;28;20389;-70
2021/08/22 09:42:37;;;;;;;3.35;3.10;;;;;;;;;;5053852;28;20021;-70
2021/08/22 09:45:21;;;;;;;4.00;3.53;;;;;;;;;;5054789;28;20474;-70
2021/08/22 09:47:58;;;;;;;6.18;4.07;;;;;;;;;;5056615;28;20013;-70
2021/08/22 09:50:26;;;;;;;8.25;4.05;;;;;;;;;;5056173;28;20040;-71
2021/08/22 09:53:21;;;;;;;5.63;4.28;;;;;;;;;;5052940;28;20072;-72
2021/08/22 09:56:05;;;;;;;3.85;3.47;;;;;;;;;;5056347;28;20044;-71
2021/08/22 09:58:33;;;;;;;5.20;4.70;;;;;;;;;;5035826;28;20041;-71
2021/08/22 10:01:19;;;;;;;4.85;4.43;;;;;;;;;;5035073;28;20037;-71
2021/08/22 10:03:45;;;;;;;4.97;3.90;;;;;;;;;;5036575;28;20049;-70
2021/08/22 10:06:19;;;;;;;5.20;4.25;;;;;;;;;;5044121;28;20021;-71
2021/08/22 10:09:10;;;;;;;4.93;4.43;;;;;;;;;;5054789;28;20032;-70
2021/08/22 10:11:41;;;;;;;4.68;4.28;;;;;;;;;;5036664;28;20045;-70
2021/08/22 10:14:10;;;;;;;7.22;4.78;;;;;;;;;;5035398;28;20029;-70
2021/08/22 10:16:41;;;;;;;7.32;4.75;;;;;;;;;;5054089;28;20044;-71
2021/08/22 10:19:11;;;;;;;5.97;5.35;;;;;;;;;;5055961;28;20175;-70
2021/08/22 10:21:37;;;;;;;6.90;5.57;;;;;;;;;;5053909;28;20029;-71
2021/08/22 10:24:02;;;;;;;5.40;4.90;;;;;;;;;;5034929;28;20032;-70
2021/08/22 10:26:47;;;;;;;5.23;4.80;;;;;;;;;;5037363;28;20021;-70
2021/08/22 10:29:16;;;;;;;6.27;5.17;;;;;;;;;;5035466;28;20021;-72
2021/08/22 10:31:50;;;;;;;6.20;5.60;;;;;;;;;;5045094;28;20279;-69
2021/08/22 10:34:15;;;;;;;5.88;5.38;;;;;;;;;;5049781;28;20017;-71
2021/08/22 10:36:43;;;;;;;4.80;4.40;;;;;;;;;;5055857;28;20361;-71
2021/08/22 10:39:29;;;;;;;5.97;5.38;;;;;;;;;;5056013;28;20259;-70
2021/08/22 10:41:56;;;;;;;5.22;4.65;;;;;;;;;;5050042;28;20496;-70
2021/08/22 10:44:39;;;;;;;5.47;5.00;;;;;;;;;;5051299;28;20028;-70
2021/08/22 10:47:10;;;;;;;5.20;4.80;;;;;;;;;;5055021;28;20024;-70
2021/08/22 10:49:54;;;;;;;5.18;4.68;;;;;;;;;;5054536;28;20090;-70
2021/08/22 10:52:25;;;;;;;4.35;3.95;;;;;;;;;;5048991;28;20051;-70
2021/08/22 10:55:06;;;;;;;5.05;4.53;;;;;;;;;;5045135;28;20025;-70
2021/08/22 10:57:49;;;;;;;5.65;4.43;;;;;;;;;;5051896;28;20029;-70
2021/08/22 11:00:19;;;;;;;6.50;5.53;;;;;;;;;;5054956;28;20127;-70
2021/08/22 11:02:44;;;;;;;7.40;6.80;;;;;;;;;;5054622;28;20108;-70
2021/08/22 11:05:16;;;;;;;7.63;6.97;;;;;;;;;;5055035;28;20100;-70
2021/08/22 11:07:43;;;;;;;6.22;5.72;;;;;;;;;;5054323;28;20025;-71
2021/08/22 11:10:12;;;;;;;4.55;4.25;;;;;;;;;;5044371;28;20036;-70
2021/08/22 11:12:38;;;;;;;6.65;5.82;;;;;;;;;;5050475;28;20025;-71
2021/08/22 11:15:04;;;;;;;4.20;3.45;;;;;;;;;;5042087;28;20079;-70
2021/08/22 11:17:29;;;;;;;5.13;3.30;;;;;;;;;;5050411;28;20028;-69
2021/08/22 11:20:14;;;;;;;3.25;2.95;;;;;;;;;;5049847;28;20032;-70
2021/08/22 11:22:39;;;;;;;4.57;4.18;;;;;;;;;;5053841;28;20331;-71
2021/08/22 11:25:05;;;;;;;4.55;3.83;;;;;;;;;;5054585;28;20095;-70
2021/08/22 11:27:33;;;;;;;7.15;3.67;;;;;;;;;;5054236;28;20029;-71
2021/08/22 11:29:59;;;;;;;3.80;3.22;;;;;;;;;;5054531;28;20426;-70
2021/08/22 11:32:25;;;;;;;4.65;3.38;;;;;;;;;;5054458;28;20082;-80
2021/08/22 11:34:52;;;;;;;4.82;3.00;;;;;;;;;;5054401;28;20021;-82
2021/08/22 11:37:23;;;;;;;5.15;3.90;;;;;;;;;;5052070;28;20029;-80
2021/08/22 11:39:48;;;;;;;4.20;3.47;;;;;;;;;;5051422;28;20048;-83
2021/08/22 11:42:18;;;;;;;4.45;4.03;;;;;;;;;;5053950;28;20044;-85
2021/08/22 11:44:44;;;;;;;4.78;3.80;;;;;;;;;;5059744;28;20031;-80
2021/08/22 11:47:09;;;;;;;3.80;3.47;;;;;;;;;;5055304;28;20350;-78
2021/08/22 11:49:35;;;;;;;3.50;3.20;;;;;;;;;;5053418;28;20465;-78
2021/08/22 11:52:01;;;;;;;4.47;3.22;;;;;;;;;;5056734;28;20317;-83
2021/08/22 11:54:30;;;;;;;3.83;3.42;;;;;;;;;;5057236;28;20455;-71
2021/08/22 11:57:15;;;;;;;4.78;3.65;;;;;;;;;;5052826;28;20443;-71
2021/08/22 11:59:42;;;;;;;3.22;2.50;;;;;;;;;;5052826;28;20226;-71
2021/08/22 12:02:20;;;;;;;3.20;2.90;;;;;;;;;;5065112;28;20036;-72
2021/08/22 12:04:46;;;;;;;3.53;3.05;;;;;;;;;;5053870;28;20032;-72
2021/08/22 12:07:11;;;;;;;5.18;2.75;;;;;;;;;;5054554;28;20498;-71
2021/08/22 12:09:36;;;;;;;7.80;3.72;;;;;;;;;;5055182;28;20017;-72
2021/08/22 12:12:02;;;;;;;6.33;4.10;;;;;;;;;;5052754;28;20035;-71
2021/08/22 12:14:31;;;;;;;4.57;4.00;;;;;;;;;;5055475;28;20505;-71
2021/08/22 12:16:59;;;;;;;4.53;3.40;;;;;;;;;;5056702;28;20017;-71
2021/08/22 12:19:26;;;;;;;4.18;3.15;;;;;;;;;;5052821;28;20118;-71
2021/08/22 12:21:51;;;;;;;5.15;3.00;;;;;;;;;;5052156;28;20103;-71
2021/08/22 12:24:18;;;;;;;6.13;3.15;;;;;;;;;;5053287;28;20048;-71
2021/08/22 12:26:53;;;;;;;3.28;2.85;;;;;;;;;;5051042;28;20017;-71
2021/08/22 12:29:27;;;;;;;3.78;3.30;;;;;;;;;;5051916;28;20409;-71
2021/08/22 12:31:55;;;;;;;3.95;2.80;;;;;;;;;;5051826;28;20460;-72
2021/08/22 12:34:22;;;;;;;3.55;2.75;;;;;;;;;;5053296;28;20076;-71
2021/08/22 12:36:47;;;;;;;4.05;2.95;;;;;;;;;;5043678;28;20122;-71
2021/08/22 12:39:14;;;;;;;4.18;2.72;;;;;;;;;;5038331;28;20032;-70
2021/08/22 12:41:40;;;;;;;4.00;3.28;;;;;;;;;;5043554;28;20500;-69
2021/08/22 12:44:16;;;;;;;5.55;3.70;;;;;;;;;;5051205;28;20044;-69
2021/08/22 12:46:41;;;;;;;4.20;3.80;;;;;;;;;;5046229;28;20017;-69
2021/08/22 12:49:11;;;;;;;5.65;4.15;;;;;;;;;;5046808;28;20017;-69
2021/08/22 12:51:37;;;;;;;6.38;4.47;;;;;;;;;;5040005;28;20029;-69
2021/08/22 12:54:03;;;;;;;7.22;3.95;;;;;;;;;;5040181;28;20028;-68
2021/08/22 12:56:28;;;;;;;6.95;4.78;;;;;;;;;;5045352;28;20026;-69
2021/08/22 12:58:54;;;;;;;6.32;4.70;;;;;;;;;;5046333;28;20024;-69
2021/08/22 13:01:20;;;;;;;8.02;4.20;;;;;;;;;;5051413;28;20108;-69
2021/08/22 13:03:46;;;;;;;4.40;3.00;;;;;;;;;;5045308;28;20040;-69
2021/08/22 13:06:11;;;;;;;7.13;3.38;;;;;;;;;;5046823;28;20010;-69
2021/08/22 13:08:36;;;;;;;5.82;3.40;;;;;;;;;;5042468;28;20021;-69
2021/08/22 13:11:02;;;;;;;3.65;3.00;;;;;;;;;;5047422;28;20029;-70
2021/08/22 13:13:28;;;;;;;7.03;2.92;;;;;;;;;;5049768;28;20074;-71
2021/08/22 13:15:53;;;;;;;9.02;3.28;;;;;;;;;;5044918;28;20021;-70
2021/08/22 13:18:18;;;;;;;3.63;3.00;;;;;;;;;;5043752;28;20041;-69
2021/08/22 13:20:43;;;;;;;3.53;3.17;;;;;;;;;;5040617;28;20013;-70
2021/08/22 13:23:08;;;;;;;3.53;3.10;;;;;;;;;;5047114;28;20272;-69
2021/08/22 13:25:34;;;;;;;4.80;3.03;;;;;;;;;;5047195;28;20350;-70
2021/08/22 13:28:02;;;;;;;4.53;4.10;;;;;;;;;;5050165;28;20025;-70
2021/08/22 13:30:27;;;;;;;5.05;4.25;;;;;;;;;;5050357;28;20033;-71
2021/08/22 13:32:53;;;;;;;8.07;3.93;;;;;;;;;;5047794;28;20033;-70
2021/08/22 13:35:18;;;;;;;4.88;3.38;;;;;;;;;;5051048;28;20267;-69
2021/08/22 13:37:44;;;;;;;7.82;4.10;;;;;;;;;;5050722;28;20040;-70
2021/08/22 13:40:09;;;;;;;5.10;3.90;;;;;;;;;;5049253;28;20449;-69
2021/08/22 13:42:34;;;;;;;8.57;4.28;;;;;;;;;;5053283;28;20072;-69
2021/08/22 13:45:00;;;;;;;5.27;4.03;;;;;;;;;;5047292;28;20009;-70
2021/08/22 13:47:25;;;;;;;4.83;4.00;;;;;;;;;;5045765;28;20027;-70
2021/08/22 13:49:52;;;;;;;4.50;4.10;;;;;;;;;;5042141;28;20037;-70
2021/08/22 13:52:17;;;;;;;5.25;3.67;;;;;;;;;;5046996;28;20256;-71
2021/08/22 13:54:43;;;;;;;7.37;4.40;;;;;;;;;;5041813;28;20021;-70
2021/08/22 13:57:08;;;;;;;6.37;4.23;;;;;;;;;;5056002;28;20251;-70
2021/08/22 13:59:33;;;;;;;9.23;4.82;;;;;;;;;;5051277;28;20413;-70
2021/08/22 14:01:58;;;;;;;6.70;4.93;;;;;;;;;;5051406;28;20099;-71
2021/08/22 14:04:24;;;;;;;5.87;4.47;;;;;;;;;;5050746;28;20031;-71
2021/08/22 14:06:49;;;;;;;5.88;4.00;;;;;;;;;;5051109;28;20326;-71
2021/08/22 14:09:14;;;;;;;5.27;4.10;;;;;;;;;;5053249;28;20024;-71
2021/08/22 14:11:40;;;;;;;7.78;4.53;;;;;;;;;;5051652;28;20009;-71
2021/08/22 14:14:05;;;;;;;5.35;4.45;;;;;;;;;;5052021;28;20017;-70
2021/08/22 14:16:30;;;;;;;5.13;3.73;;;;;;;;;;5044940;28;20048;-69
2021/08/22 14:18:55;;;;;;;5.72;4.18;;;;;;;;;;5049608;28;20256;-70
2021/08/22 14:21:21;;;;;;;5.30;4.13;;;;;;;;;;5052516;28;20090;-69
2021/08/22 14:23:46;;;;;;;4.90;4.50;;;;;;;;;;5055485;28;20373;-69
2021/08/22 14:26:13;;;;;;;7.53;4.90;;;;;;;;;;5049077;28;20100;-71
2021/08/22 14:28:39;;;;;;;6.07;4.85;;;;;;;;;;5055482;28;20251;-70
2021/08/22 14:31:04;;;;;;;4.97;4.33;;;;;;;;;;5039782;28;20046;-70
2021/08/22 14:33:36;;;;;;;4.97;4.05;;;;;;;;;;5035576;28;20288;-70
2021/08/22 14:36:02;;;;;;;4.88;4.47;;;;;;;;;;5035934;28;20032;-69
2021/08/22 14:38:32;;;;;;;4.95;3.50;;;;;;;;;;5044229;28;21667;-70
2021/08/22 14:41:00;;;;;;;11.70;4.63;;;;;;;;;;5041329;28;20055;-70
2021/08/22 14:43:25;;;;;;;5.18;3.30;;;;;;;;;;5053971;28;20517;-69